In Rescue
 
Open Full Screen Window  High Contrast Mode
Wind Gusting 24 knots
17
May 25, 2022 9:34 PM EDT
Present Weather: Light Snow
Weather Information
Wind Direction
  100 °
Wind Speed
  17 kt (20 mph)
Wind Gust
  24 kt (28 mph)
Altimeter
29.98 in
Visibility
2 1/2 SM
Temperature
07° C
45° F
Dewpoint
07° C
45° F
Humidity
100%
1hr Rain Fall
00.09 in.
24hr Rain Fall
00.65 in.
Sky Condition
Overcast @ 200 ft
LIFR

METAR KMCD 260134Z AUTO 10017G24KT 2 1/2SM -SN OVC002 07/07 A2998 RMK AO2 T00700070 P0009

FAA Disclaimer: The data displayed is for advisory purposes only and is not to be used for flight planning or operations.